createdAt,value
2023-05-08T00:00:08.226Z,5.89
2023-05-08T00:02:56.924Z,5.88
2023-05-08T00:05:27.427Z,5.85
2023-05-08T00:08:01.369Z,5.83
2023-05-08T00:10:30.957Z,5.84
2023-05-08T00:12:59.713Z,5.81
2023-05-08T00:15:28.666Z,5.78
2023-05-08T00:17:57.334Z,5.76
2023-05-08T00:20:27.999Z,5.74
2023-05-08T00:22:57.929Z,5.72
2023-05-08T00:25:28.235Z,5.68
2023-05-08T00:27:57.440Z,5.68
2023-05-08T00:30:26.808Z,5.61
2023-05-08T00:32:55.700Z,5.63
2023-05-08T00:35:24.855Z,5.60
2023-05-08T00:37:54.863Z,5.60
2023-05-08T00:40:23.971Z,5.57
2023-05-08T00:42:52.674Z,5.48
2023-05-08T00:45:22.030Z,5.49
2023-05-08T00:47:52.702Z,5.50
2023-05-08T00:50:21.896Z,5.49
2023-05-08T00:52:51.617Z,5.49
2023-05-08T00:55:23.162Z,5.49
2023-05-08T00:57:53.404Z,5.47
2023-05-08T01:00:23.371Z,5.43
2023-05-08T01:02:52.803Z,5.44
2023-05-08T01:05:21.857Z,5.42
2023-05-08T01:07:50.917Z,5.43
2023-05-08T01:10:21.315Z,5.42
2023-05-08T01:13:06.489Z,5.38
2023-05-08T01:15:48.689Z,5.37
2023-05-08T01:18:29.169Z,5.36
2023-05-08T01:21:08.343Z,5.33
2023-05-08T01:24:29.168Z,5.32
2023-05-08T01:27:41.826Z,5.24
2023-05-08T01:30:50.690Z,5.22
2023-05-08T01:33:28.279Z,5.19
2023-05-08T01:36:12.694Z,5.19
2023-05-08T01:38:53.077Z,5.16
2023-05-08T01:41:29.295Z,5.18
2023-05-08T01:44:13.905Z,5.19
2023-05-08T01:46:49.168Z,5.14
2023-05-08T01:49:27.500Z,5.12
2023-05-08T01:52:05.622Z,5.13
2023-05-08T01:54:43.927Z,5.14
2023-05-08T01:57:15.618Z,5.13
2023-05-08T01:59:47.670Z,5.12
2023-05-08T02:02:19.055Z,5.10
2023-05-08T02:04:53.300Z,5.06
2023-05-08T02:07:25.112Z,5.08
2023-05-08T02:09:59.074Z,5.06
2023-05-08T02:12:29.981Z,5.06
2023-05-08T02:15:01.421Z,5.09
2023-05-08T02:17:51.739Z,5.05
2023-05-08T02:20:23.688Z,5.06
2023-05-08T02:22:53.106Z,5.04
2023-05-08T02:25:23.360Z,5.02
2023-05-08T02:27:56.590Z,4.96
2023-05-08T02:30:27.576Z,4.97
2023-05-08T02:33:00.837Z,4.92
2023-05-08T02:35:33.230Z,4.90
2023-05-08T02:38:04.009Z,4.84
2023-05-08T02:40:34.264Z,4.81
2023-05-08T02:43:03.050Z,4.79
2023-05-08T02:45:44.681Z,4.75
2023-05-08T02:48:23.921Z,4.71
2023-05-08T02:51:04.150Z,4.68
2023-05-08T02:53:38.917Z,4.66
2023-05-08T02:56:18.810Z,4.64
2023-05-08T02:58:59.932Z,4.62
2023-05-08T03:01:37.386Z,4.58
2023-05-08T03:04:12.306Z,4.60
2023-05-08T03:06:48.023Z,4.59
2023-05-08T03:09:21.621Z,4.59
2023-05-08T03:12:00.462Z,4.63
2023-05-08T03:14:33.410Z,4.65
2023-05-08T03:17:08.786Z,4.65
2023-05-08T03:19:40.366Z,4.63
2023-05-08T03:22:12.583Z,4.64
2023-05-08T03:24:45.248Z,4.69
2023-05-08T03:27:17.158Z,4.69
2023-05-08T03:29:47.844Z,4.72
2023-05-08T03:32:19.382Z,4.71
2023-05-08T03:34:50.396Z,4.73
2023-05-08T03:37:21.258Z,4.78
2023-05-08T03:39:50.157Z,4.79
2023-05-08T03:42:22.136Z,4.80
2023-05-08T03:44:53.522Z,4.84
2023-05-08T03:47:24.271Z,4.83
2023-05-08T03:49:54.178Z,4.83
2023-05-08T03:52:25.747Z,4.87
2023-05-08T03:54:54.731Z,4.93
2023-05-08T03:57:32.554Z,4.96
2023-05-08T04:00:10.083Z,4.97
2023-05-08T04:03:09.182Z,5.05
2023-05-08T04:05:48.961Z,5.11
2023-05-08T04:08:27.103Z,5.20
2023-05-08T04:11:07.597Z,5.27
2023-05-08T04:13:46.986Z,5.33
2023-05-08T04:16:25.051Z,5.40
2023-05-08T04:19:03.401Z,5.49
2023-05-08T04:21:37.426Z,5.57
2023-05-08T04:24:13.583Z,5.66
2023-05-08T04:26:44.202Z,5.73
2023-05-08T04:29:14.325Z,5.85
2023-05-08T04:31:44.468Z,5.97
2023-05-08T04:34:14.905Z,6.08
2023-05-08T04:36:44.134Z,6.20
2023-05-08T04:39:14.554Z,6.32
2023-05-08T04:41:44.117Z,6.44
2023-05-08T04:44:14.539Z,6.56
2023-05-08T04:46:43.491Z,6.66
2023-05-08T04:49:12.646Z,6.78
2023-05-08T04:51:41.268Z,6.88
2023-05-08T04:54:10.419Z,7.03
2023-05-08T04:56:40.486Z,7.12
2023-05-08T04:59:09.418Z,7.27
2023-05-08T05:01:38.169Z,7.41
2023-05-08T05:04:07.395Z,7.55
2023-05-08T05:06:36.103Z,7.71
2023-05-08T05:09:05.442Z,7.81
2023-05-08T05:11:34.534Z,7.93
2023-05-08T05:14:04.925Z,8.11
2023-05-08T05:16:33.756Z,8.22
2023-05-08T05:19:02.755Z,8.39
2023-05-08T05:21:31.723Z,8.53
2023-05-08T05:24:00.813Z,8.74
2023-05-08T05:26:29.542Z,8.89
2023-05-08T05:28:58.644Z,9.07
2023-05-08T05:31:29.939Z,9.30
2023-05-08T05:33:59.639Z,9.51
2023-05-08T05:36:29.394Z,9.77
2023-05-08T05:38:58.780Z,9.98
2023-05-08T05:41:27.786Z,10.32
2023-05-08T05:43:56.833Z,10.69
2023-05-08T05:46:32.303Z,10.98
2023-05-08T05:49:04.975Z,11.26
2023-05-08T05:51:35.463Z,11.48
2023-05-08T05:54:04.924Z,11.63
2023-05-08T05:56:33.559Z,11.88
2023-05-08T05:59:02.756Z,12.08
2023-05-08T06:01:31.799Z,12.22
2023-05-08T06:04:00.935Z,12.38
2023-05-08T06:06:32.045Z,12.58
2023-05-08T06:09:01.532Z,12.70
2023-05-08T06:11:30.273Z,12.80
2023-05-08T06:13:59.267Z,13.02
2023-05-08T06:16:28.101Z,13.15
2023-05-08T06:18:57.186Z,13.29
2023-05-08T06:21:28.723Z,13.34
2023-05-08T06:23:58.980Z,13.51
2023-05-08T06:26:27.706Z,13.57
2023-05-08T06:28:56.825Z,13.70
2023-05-08T06:31:25.619Z,13.78
2023-05-08T06:33:54.672Z,13.84
2023-05-08T06:36:23.378Z,14.01
2023-05-08T06:38:53.484Z,14.22
2023-05-08T06:41:23.482Z,14.32
2023-05-08T06:43:52.357Z,14.43
2023-05-08T06:46:21.774Z,14.49
2023-05-08T06:48:50.926Z,14.53
2023-05-08T06:51:23.195Z,14.52
2023-05-08T06:53:52.166Z,14.65
2023-05-08T06:56:21.216Z,14.65
2023-05-08T06:59:04.577Z,14.76
2023-05-08T07:01:37.536Z,14.66
2023-05-08T07:04:06.991Z,14.56
2023-05-08T07:06:35.694Z,14.62
2023-05-08T07:09:04.784Z,14.67
2023-05-08T07:11:33.648Z,14.75
2023-05-08T07:14:04.064Z,14.80
2023-05-08T07:16:32.915Z,14.83
2023-05-08T07:19:02.015Z,14.88
2023-05-08T07:21:30.776Z,14.91
2023-05-08T07:23:59.789Z,14.63
2023-05-08T07:26:28.517Z,14.58
2023-05-08T07:28:57.573Z,14.71
2023-05-08T07:31:27.626Z,14.64
2023-05-08T07:33:56.715Z,14.83
2023-05-08T07:36:25.331Z,14.88
2023-05-08T07:38:54.281Z,14.81
2023-05-08T07:41:23.164Z,14.79
2023-05-08T07:43:52.158Z,14.71
2023-05-08T07:46:21.764Z,14.47
2023-05-08T07:48:52.073Z,14.67
2023-05-08T07:51:20.883Z,14.71
2023-05-08T07:53:51.191Z,14.74
2023-05-08T07:56:19.908Z,14.96
2023-05-08T07:58:48.877Z,15.15
2023-05-08T08:01:18.458Z,15.15
2023-05-08T08:03:47.897Z,14.97
2023-05-08T08:06:18.600Z,14.89
2023-05-08T08:08:47.597Z,14.94
2023-05-08T08:11:16.363Z,15.07
2023-05-08T08:13:45.336Z,15.24
2023-05-08T08:16:14.040Z,15.21
2023-05-08T08:18:42.997Z,15.34
2023-05-08T08:21:11.721Z,15.33
2023-05-08T08:23:42.080Z,15.36
2023-05-08T08:26:10.814Z,15.34
2023-05-08T08:28:39.724Z,15.33
2023-05-08T08:31:08.567Z,15.55
2023-05-08T08:33:37.616Z,15.66
2023-05-08T08:36:13.644Z,15.79
2023-05-08T08:38:44.047Z,15.84
2023-05-08T08:41:15.750Z,16.08
2023-05-08T08:43:44.776Z,16.23
2023-05-08T08:46:15.986Z,16.38
2023-05-08T08:48:47.958Z,16.46
2023-05-08T08:51:28.442Z,16.36
2023-05-08T08:54:12.505Z,16.40
2023-05-08T08:56:43.050Z,16.36
2023-05-08T08:59:14.521Z,16.49
2023-05-08T09:01:48.736Z,16.56
2023-05-08T09:04:18.365Z,16.72
2023-05-08T09:06:48.078Z,16.77
2023-05-08T09:09:18.404Z,16.76
2023-05-08T09:11:48.425Z,16.75
2023-05-08T09:14:17.393Z,16.68
2023-05-08T09:16:46.536Z,16.82
2023-05-08T09:19:16.517Z,16.96
2023-05-08T09:21:46.336Z,17.07
2023-05-08T09:24:15.790Z,17.04
2023-05-08T09:26:45.824Z,17.01
2023-05-08T09:29:17.268Z,16.87
2023-05-08T09:31:49.067Z,16.88
2023-05-08T09:34:27.980Z,16.87
2023-05-08T09:36:57.525Z,16.68
2023-05-08T09:39:27.653Z,16.63
2023-05-08T09:42:02.861Z,16.57
2023-05-08T09:44:46.523Z,16.48
2023-05-08T09:47:16.901Z,16.65
2023-05-08T09:49:59.303Z,17.57
2023-05-08T09:52:28.956Z,18.24
2023-05-08T09:55:02.855Z,18.18
2023-05-08T09:57:36.461Z,17.73
2023-05-08T10:00:10.324Z,17.51
2023-05-08T10:02:42.512Z,17.48
2023-05-08T10:05:26.297Z,18.09
2023-05-08T10:07:55.241Z,18.44
2023-05-08T10:10:27.483Z,18.02
2023-05-08T10:12:59.710Z,17.67
2023-05-08T10:15:32.180Z,18.22
2023-05-08T10:18:06.600Z,19.56
2023-05-08T10:20:39.921Z,20.67
2023-05-08T10:23:15.658Z,21.11
2023-05-08T10:25:48.416Z,21.22
2023-05-08T10:28:32.442Z,20.63
2023-05-08T10:31:05.506Z,19.63
2023-05-08T10:33:36.561Z,18.77
2023-05-08T10:36:07.664Z,18.36
2023-05-08T10:38:38.318Z,18.11
2023-05-08T10:41:07.806Z,18.33
2023-05-08T10:43:43.516Z,18.56
2023-05-08T10:46:23.877Z,19.87
2023-05-08T10:49:06.596Z,20.50
2023-05-08T10:51:46.336Z,20.27
2023-05-08T10:54:24.693Z,20.26
2023-05-08T10:56:53.700Z,19.28
2023-05-08T10:59:23.908Z,18.77
2023-05-08T11:01:53.504Z,18.42
2023-05-08T11:04:24.251Z,18.75
2023-05-08T11:06:54.012Z,19.76
2023-05-08T11:09:24.663Z,20.26
2023-05-08T11:12:08.339Z,20.48
2023-05-08T11:14:43.709Z,20.74
2023-05-08T11:17:12.825Z,20.96
2023-05-08T11:19:58.177Z,20.99
2023-05-08T11:22:30.200Z,20.89
2023-05-08T11:25:08.775Z,20.69
2023-05-08T11:28:20.208Z,20.44
2023-05-08T11:30:56.424Z,20.54
2023-05-08T11:33:32.080Z,20.67
2023-05-08T11:36:12.673Z,20.55
2023-05-08T11:38:44.013Z,20.87
2023-05-08T11:41:22.801Z,21.32
2023-05-08T11:44:20.543Z,21.03
2023-05-08T11:46:54.050Z,21.42
2023-05-08T11:49:29.018Z,22.13
2023-05-08T11:52:00.759Z,22.65
2023-05-08T11:54:32.746Z,23.00
2023-05-08T11:57:01.883Z,22.86
2023-05-08T11:59:36.665Z,22.34
2023-05-08T12:02:09.188Z,21.28
2023-05-08T12:04:46.902Z,20.37
2023-05-08T12:07:16.485Z,19.93
2023-05-08T12:09:47.581Z,19.44
2023-05-08T12:12:16.409Z,19.05
2023-05-08T12:14:45.395Z,18.64
2023-05-08T12:17:19.324Z,18.36
2023-05-08T12:19:48.328Z,18.14
2023-05-08T12:22:17.003Z,18.09
2023-05-08T12:24:46.103Z,18.20
2023-05-08T12:27:14.902Z,18.11
2023-05-08T12:29:46.707Z,18.07
2023-05-08T12:32:17.037Z,18.04
2023-05-08T12:34:46.378Z,17.96
2023-05-08T12:37:25.847Z,17.84
2023-05-08T12:39:55.223Z,17.66
2023-05-08T12:42:23.979Z,17.63
2023-05-08T12:44:54.329Z,17.57
2023-05-08T12:47:26.801Z,17.56
2023-05-08T12:49:59.494Z,17.48
2023-05-08T12:52:29.923Z,17.55
2023-05-08T12:54:58.977Z,17.60
2023-05-08T12:57:27.748Z,17.52
2023-05-08T13:00:06.038Z,17.45
2023-05-08T13:02:41.680Z,17.35
2023-05-08T13:05:21.818Z,17.25
2023-05-08T13:07:51.531Z,17.30
2023-05-08T13:10:23.489Z,17.35
2023-05-08T13:12:53.318Z,17.33
2023-05-08T13:15:23.953Z,17.25
2023-05-08T13:17:54.153Z,17.25
2023-05-08T13:20:23.648Z,17.20
2023-05-08T13:22:52.436Z,17.29
2023-05-08T13:25:21.363Z,17.30
2023-05-08T13:27:50.051Z,17.25
2023-05-08T13:30:19.086Z,17.42
2023-05-08T13:32:47.781Z,17.46
2023-05-08T13:35:18.929Z,17.57
2023-05-08T13:37:48.360Z,17.59
2023-05-08T13:40:18.974Z,17.69
2023-05-08T13:42:47.881Z,17.82
2023-05-08T13:45:18.589Z,18.03
2023-05-08T13:47:48.714Z,17.86
2023-05-08T13:50:21.822Z,17.73
2023-05-08T13:52:53.218Z,17.61
2023-05-08T13:55:24.342Z,17.37
2023-05-08T13:57:53.115Z,17.39
2023-05-08T14:00:22.321Z,17.47
2023-05-08T14:02:53.174Z,17.48
2023-05-08T14:05:23.797Z,17.54
2023-05-08T14:07:52.549Z,17.55
2023-05-08T14:10:21.774Z,17.58
2023-05-08T14:12:50.546Z,17.62
2023-05-08T14:15:19.755Z,17.67
2023-05-08T14:17:48.677Z,17.67
2023-05-08T14:20:17.759Z,17.65
2023-05-08T14:22:47.772Z,17.59
2023-05-08T14:25:16.926Z,17.54
2023-05-08T14:27:45.628Z,17.51
2023-05-08T14:30:16.010Z,17.48
2023-05-08T14:32:44.707Z,17.58
2023-05-08T14:35:14.439Z,17.57
2023-05-08T14:37:43.385Z,17.47
2023-05-08T14:40:14.193Z,17.56
2023-05-08T14:42:42.928Z,17.63
2023-05-08T14:45:12.926Z,17.63
2023-05-08T14:47:41.917Z,17.57
2023-05-08T14:50:12.229Z,17.56
2023-05-08T14:52:40.958Z,17.56
2023-05-08T14:55:11.429Z,17.46
2023-05-08T14:57:41.745Z,17.48
2023-05-08T15:00:12.886Z,17.43
2023-05-08T15:02:42.103Z,17.38
2023-05-08T15:05:19.204Z,17.34
2023-05-08T15:07:50.068Z,17.19
2023-05-08T15:10:19.156Z,17.16
2023-05-08T15:12:49.261Z,17.20
2023-05-08T15:15:18.296Z,17.28
2023-05-08T15:17:47.012Z,17.48
2023-05-08T15:20:15.991Z,17.49
2023-05-08T15:22:44.726Z,17.45
2023-05-08T15:25:14.418Z,17.39
2023-05-08T15:27:43.375Z,17.22
2023-05-08T15:30:15.539Z,17.19
2023-05-08T15:32:44.331Z,17.16
2023-05-08T15:35:13.749Z,17.00
2023-05-08T15:37:42.562Z,16.92
2023-05-08T15:40:13.183Z,16.89
2023-05-08T15:42:41.859Z,16.97
2023-05-08T15:45:13.051Z,17.04
2023-05-08T15:47:41.863Z,17.20
2023-05-08T15:50:11.967Z,17.39
2023-05-08T15:52:40.578Z,17.54
2023-05-08T15:55:11.190Z,17.71
2023-05-08T15:57:40.137Z,17.79
2023-05-08T16:00:10.939Z,17.80
2023-05-08T16:02:41.049Z,17.83
2023-05-08T16:05:11.210Z,17.82
2023-05-08T16:07:40.313Z,17.76
2023-05-08T16:10:11.048Z,17.81
2023-05-08T16:12:39.719Z,17.72
2023-05-08T16:15:09.578Z,17.63
2023-05-08T16:17:38.278Z,17.44
2023-05-08T16:20:12.486Z,17.26
2023-05-08T16:22:41.800Z,17.06
2023-05-08T16:25:11.857Z,16.92
2023-05-08T16:27:40.810Z,16.83
2023-05-08T16:30:11.924Z,16.77
2023-05-08T16:32:40.920Z,16.73
2023-05-08T16:35:12.185Z,16.67
2023-05-08T16:37:41.059Z,16.64
2023-05-08T16:40:11.802Z,16.59
2023-05-08T16:42:40.453Z,16.61
2023-05-08T16:45:11.406Z,16.68
2023-05-08T16:47:40.250Z,16.70
2023-05-08T16:50:12.362Z,16.73
2023-05-08T16:52:41.177Z,16.71
2023-05-08T16:55:11.546Z,16.64
2023-05-08T16:57:40.466Z,16.53
2023-05-08T17:00:10.760Z,16.42
2023-05-08T17:02:39.525Z,16.37
2023-05-08T17:05:10.762Z,16.28
2023-05-08T17:07:39.819Z,16.22
2023-05-08T17:10:10.604Z,16.19
2023-05-08T17:12:39.386Z,16.10
2023-05-08T17:15:09.765Z,16.04
2023-05-08T17:17:38.734Z,16.01
2023-05-08T17:20:11.614Z,15.92
2023-05-08T17:22:41.326Z,15.85
2023-05-08T17:25:11.595Z,15.80
2023-05-08T17:27:40.433Z,15.73
2023-05-08T17:30:12.500Z,15.68
2023-05-08T17:32:41.537Z,15.66
2023-05-08T17:35:12.203Z,15.59
2023-05-08T17:37:40.906Z,15.59
2023-05-08T17:40:11.870Z,15.54
2023-05-08T17:42:40.743Z,15.49
2023-05-08T17:45:10.407Z,15.45
2023-05-08T17:47:40.261Z,15.39
2023-05-08T17:50:11.995Z,15.31
2023-05-08T17:52:41.204Z,15.25
2023-05-08T17:55:11.582Z,15.18
2023-05-08T17:57:40.409Z,15.12
2023-05-08T18:00:11.260Z,15.06
2023-05-08T18:02:41.479Z,14.92
2023-05-08T18:05:12.050Z,14.78
2023-05-08T18:07:40.976Z,14.64
2023-05-08T18:10:10.947Z,14.49
2023-05-08T18:12:39.734Z,14.40
2023-05-08T18:15:09.911Z,14.26
2023-05-08T18:17:38.677Z,14.15
2023-05-08T18:20:09.973Z,14.03
2023-05-08T18:22:40.187Z,13.89
2023-05-08T18:25:12.607Z,13.75
2023-05-08T18:27:42.918Z,13.64
2023-05-08T18:30:14.151Z,13.53
2023-05-08T18:32:44.145Z,13.44
2023-05-08T18:35:13.663Z,13.33
2023-05-08T18:37:43.909Z,13.21
2023-05-08T18:40:14.375Z,13.13
2023-05-08T18:42:43.326Z,12.94
2023-05-08T18:45:13.148Z,12.85
2023-05-08T18:47:41.808Z,12.77
2023-05-08T18:50:12.174Z,12.69
2023-05-08T18:52:41.140Z,12.59
2023-05-08T18:55:11.817Z,12.53
2023-05-08T18:57:40.406Z,12.49
2023-05-08T19:00:10.952Z,12.33
2023-05-08T19:02:39.879Z,12.25
2023-05-08T19:05:09.663Z,12.21
2023-05-08T19:07:38.390Z,12.13
2023-05-08T19:10:09.528Z,12.07
2023-05-08T19:12:39.696Z,12.01
2023-05-08T19:15:13.313Z,11.88
2023-05-08T19:17:42.740Z,11.78
2023-05-08T19:20:14.590Z,11.78
2023-05-08T19:22:43.680Z,11.70
2023-05-08T19:25:13.635Z,11.63
2023-05-08T19:27:43.661Z,11.58
2023-05-08T19:30:13.925Z,11.51
2023-05-08T19:32:43.170Z,11.43
2023-05-08T19:35:12.203Z,11.37
2023-05-08T19:37:40.928Z,11.32
2023-05-08T19:40:11.741Z,11.23
2023-05-08T19:42:40.590Z,11.16
2023-05-08T19:45:12.655Z,11.12
2023-05-08T19:47:41.412Z,11.08
2023-05-08T19:50:12.507Z,11.03
2023-05-08T19:52:41.407Z,10.95
2023-05-08T19:55:10.833Z,10.88
2023-05-08T19:57:39.652Z,10.80
2023-05-08T20:00:12.198Z,10.73
2023-05-08T20:02:41.315Z,10.69
2023-05-08T20:05:21.812Z,10.64
2023-05-08T20:07:51.839Z,10.57
2023-05-08T20:10:20.963Z,10.55
2023-05-08T20:12:49.692Z,10.48
2023-05-08T20:15:20.580Z,10.42
2023-05-08T20:17:49.291Z,10.40
2023-05-08T20:20:18.354Z,10.39
2023-05-08T20:22:47.014Z,10.27
2023-05-08T20:25:16.244Z,10.20
2023-05-08T20:27:44.938Z,10.15
2023-05-08T20:30:14.751Z,10.08
2023-05-08T20:32:45.001Z,10.02
2023-05-08T20:35:14.905Z,9.97
2023-05-08T20:37:48.247Z,9.93
2023-05-08T20:40:17.460Z,9.93
2023-05-08T20:42:46.297Z,9.90
2023-05-08T20:45:15.247Z,9.82
2023-05-08T20:47:45.303Z,9.80
2023-05-08T20:50:16.119Z,9.79
2023-05-08T20:52:45.931Z,9.74
2023-05-08T20:55:15.198Z,9.66
2023-05-08T20:57:44.195Z,9.57
2023-05-08T21:00:14.444Z,9.54
2023-05-08T21:02:44.745Z,9.49
2023-05-08T21:05:14.142Z,9.43
2023-05-08T21:07:43.044Z,9.39
2023-05-08T21:10:13.002Z,9.35
2023-05-08T21:12:44.515Z,9.31
2023-05-08T21:15:13.829Z,9.28
2023-05-08T21:17:44.234Z,9.26
2023-05-08T21:20:14.441Z,9.21
2023-05-08T21:22:43.443Z,9.18
2023-05-08T21:25:19.176Z,9.16
2023-05-08T21:27:47.856Z,9.10
2023-05-08T21:30:16.907Z,9.08
2023-05-08T21:32:47.733Z,9.02
2023-05-08T21:35:17.413Z,9.02
2023-05-08T21:37:46.312Z,9.00
2023-05-08T21:40:15.372Z,8.95
2023-05-08T21:42:44.029Z,8.90
2023-05-08T21:45:13.469Z,8.88
2023-05-08T21:47:42.365Z,8.86
2023-05-08T21:50:13.138Z,8.85
2023-05-08T21:52:42.096Z,8.79
2023-05-08T21:55:11.690Z,8.75
2023-05-08T21:57:40.493Z,8.72
2023-05-08T22:00:10.993Z,8.70
2023-05-08T22:02:48.398Z,8.66
2023-05-08T22:05:18.960Z,8.63
2023-05-08T22:07:47.686Z,8.57
2023-05-08T22:10:16.590Z,8.50
2023-05-08T22:12:45.278Z,8.49
2023-05-08T22:15:28.581Z,8.49
2023-05-08T22:17:58.861Z,8.44
2023-05-08T22:20:29.618Z,8.39
2023-05-08T22:22:58.193Z,8.39
2023-05-08T22:25:27.393Z,8.33
2023-05-08T22:27:56.049Z,8.30
2023-05-08T22:30:25.007Z,8.23
2023-05-08T22:32:57.548Z,8.18
2023-05-08T22:35:29.016Z,8.15
2023-05-08T22:37:58.390Z,8.13
2023-05-08T22:40:28.341Z,8.09
2023-05-08T22:42:58.879Z,8.05
2023-05-08T22:45:28.919Z,8.02
2023-05-08T22:47:57.979Z,8.00
2023-05-08T22:50:28.396Z,7.98
2023-05-08T22:52:57.100Z,7.96
2023-05-08T22:55:26.018Z,7.95
2023-05-08T22:57:54.685Z,7.94
2023-05-08T23:00:23.879Z,7.88
2023-05-08T23:02:52.616Z,7.86
2023-05-08T23:05:21.801Z,7.83
2023-05-08T23:07:52.034Z,7.81
2023-05-08T23:10:20.922Z,7.78
2023-05-08T23:12:49.535Z,7.75
2023-05-08T23:15:21.090Z,7.75
2023-05-08T23:17:50.333Z,7.76
2023-05-08T23:20:19.747Z,7.76
2023-05-08T23:22:48.426Z,7.71
2023-05-08T23:25:18.788Z,7.67
2023-05-08T23:27:47.431Z,7.63
2023-05-08T23:30:17.023Z,7.60
2023-05-08T23:32:45.933Z,7.58
2023-05-08T23:35:15.201Z,7.57
2023-05-08T23:37:43.969Z,7.55
2023-05-08T23:40:14.012Z,7.54
2023-05-08T23:42:44.373Z,7.51
2023-05-08T23:45:13.661Z,7.48
2023-05-08T23:47:42.492Z,7.47
2023-05-08T23:50:13.138Z,7.44
2023-05-08T23:52:42.709Z,7.43
2023-05-08T23:55:12.328Z,7.39
2023-05-08T23:57:41.252Z,7.35
